createdAt,value
2023-05-22T00:01:15.057Z,5.18
2023-05-22T00:03:42.074Z,5.75
2023-05-22T00:06:10.434Z,5.40
2023-05-22T00:08:37.546Z,5.63
2023-05-22T00:11:05.223Z,5.00
2023-05-22T00:13:32.217Z,4.88
2023-05-22T00:15:59.226Z,5.18
2023-05-22T00:18:27.322Z,5.38
2023-05-22T00:20:54.499Z,4.88
2023-05-22T00:23:22.195Z,5.50
2023-05-22T00:25:50.814Z,5.53
2023-05-22T00:28:17.883Z,5.47
2023-05-22T00:30:45.904Z,5.80
2023-05-22T00:33:13.090Z,5.53
2023-05-22T00:35:40.036Z,5.45
2023-05-22T00:38:08.280Z,5.60
2023-05-22T00:40:35.573Z,5.03
2023-05-22T00:43:08.523Z,5.75
2023-05-22T00:45:35.970Z,5.53
2023-05-22T00:48:03.046Z,5.68
2023-05-22T00:50:30.134Z,6.20
2023-05-22T00:52:57.175Z,5.35
2023-05-22T00:55:24.434Z,5.75
2023-05-22T00:57:52.455Z,5.88
2023-05-22T01:00:20.636Z,6.63
2023-05-22T01:02:48.185Z,6.72
2023-05-22T01:05:18.346Z,6.28
2023-05-22T01:10:13.813Z,6.13
2023-05-22T01:12:52.992Z,6.57
2023-05-22T01:15:39.691Z,6.32
2023-05-22T01:18:30.411Z,6.32
2023-05-22T01:21:18.478Z,6.57
2023-05-22T01:24:25.814Z,6.53
2023-05-22T01:27:26.264Z,6.28
2023-05-22T01:29:59.362Z,6.28
2023-05-22T01:32:29.236Z,6.72
2023-05-22T01:35:01.695Z,6.38
2023-05-22T01:37:29.740Z,6.25
2023-05-22T01:39:58.057Z,5.95
2023-05-22T01:42:25.749Z,6.05
2023-05-22T01:44:54.343Z,6.35
2023-05-22T01:47:23.459Z,6.20
2023-05-22T01:49:52.273Z,6.05
2023-05-22T01:52:29.089Z,6.82
2023-05-22T01:55:10.329Z,6.43
2023-05-22T01:57:45.957Z,7.15
2023-05-22T02:00:15.478Z,7.00
2023-05-22T02:02:49.656Z,7.05
2023-05-22T02:05:22.478Z,6.88
2023-05-22T02:07:50.500Z,6.45
2023-05-22T02:10:20.817Z,6.78
2023-05-22T02:12:48.530Z,6.53
2023-05-22T02:15:16.443Z,7.25
2023-05-22T02:17:45.747Z,6.60
2023-05-22T02:20:15.844Z,6.97
2023-05-22T02:22:45.358Z,6.45
2023-05-22T02:25:17.452Z,6.60
2023-05-22T02:27:47.644Z,6.40
2023-05-22T02:30:15.776Z,6.80
2023-05-22T02:32:45.262Z,6.72
2023-05-22T02:35:12.681Z,6.93
2023-05-22T02:37:39.923Z,6.80
2023-05-22T02:40:07.976Z,6.95
2023-05-22T02:42:35.348Z,6.57
2023-05-22T02:45:03.149Z,6.65
2023-05-22T02:47:30.495Z,7.18
2023-05-22T02:50:00.237Z,6.30
2023-05-22T02:52:28.560Z,6.75
2023-05-22T02:54:55.824Z,7.18
2023-05-22T02:57:23.838Z,7.28
2023-05-22T02:59:51.335Z,7.03
2023-05-22T03:02:18.708Z,6.72
2023-05-22T03:04:46.566Z,6.72
2023-05-22T03:07:13.599Z,6.97
2023-05-22T03:09:40.640Z,7.03
2023-05-22T03:12:08.216Z,7.43
2023-05-22T03:14:35.546Z,7.55
2023-05-22T03:17:02.759Z,7.00
2023-05-22T03:19:30.074Z,6.68
2023-05-22T03:21:57.721Z,7.97
2023-05-22T03:24:24.811Z,6.60
2023-05-22T03:26:52.119Z,6.85
2023-05-22T03:29:26.872Z,7.13
2023-05-22T03:31:54.818Z,6.72
2023-05-22T03:34:22.920Z,6.97
2023-05-22T03:36:50.138Z,7.68
2023-05-22T03:39:17.702Z,7.00
2023-05-22T03:41:53.954Z,7.55
2023-05-22T03:44:21.089Z,7.65
2023-05-22T03:46:48.198Z,7.07
2023-05-22T03:49:15.703Z,7.78
2023-05-22T03:51:42.683Z,7.47
2023-05-22T03:54:09.685Z,8.10
2023-05-22T03:56:36.731Z,8.32
2023-05-22T03:59:03.810Z,7.63
2023-05-22T04:01:31.206Z,8.27
2023-05-22T04:03:58.210Z,8.30
2023-05-22T04:06:25.787Z,8.23
2023-05-22T04:08:52.869Z,8.23
2023-05-22T04:11:21.163Z,8.77
2023-05-22T04:13:51.109Z,8.73
2023-05-22T04:16:18.397Z,8.20
2023-05-22T04:18:45.602Z,8.93
2023-05-22T04:21:12.905Z,8.20
2023-05-22T04:23:43.406Z,7.47
2023-05-22T04:26:10.517Z,7.85
2023-05-22T04:28:38.119Z,7.85
2023-05-22T04:31:06.836Z,8.10
2023-05-22T04:33:34.901Z,7.35
2023-05-22T04:36:02.975Z,8.50
2023-05-22T04:38:30.145Z,8.50
2023-05-22T04:40:58.443Z,8.63
2023-05-22T04:43:26.876Z,7.95
2023-05-22T04:45:55.107Z,8.57
2023-05-22T04:48:24.900Z,8.50
2023-05-22T04:50:52.332Z,7.63
2023-05-22T04:53:19.418Z,8.07
2023-05-22T04:55:46.465Z,7.22
2023-05-22T04:58:13.550Z,6.82
2023-05-22T05:00:40.840Z,6.18
2023-05-22T05:03:08.585Z,7.40
2023-05-22T05:05:35.783Z,6.13
2023-05-22T05:08:02.971Z,6.68
2023-05-22T05:10:30.079Z,7.18
2023-05-22T05:12:57.232Z,6.93
2023-05-22T05:15:24.362Z,6.55
2023-05-22T05:17:51.615Z,6.57
2023-05-22T05:20:18.800Z,6.60
2023-05-22T05:22:46.549Z,7.25
2023-05-22T05:25:15.233Z,7.03
2023-05-22T05:27:42.637Z,6.85
2023-05-22T05:30:10.949Z,7.43
2023-05-22T05:32:58.383Z,6.57
2023-05-22T05:35:44.068Z,6.72
2023-05-22T05:38:13.284Z,6.55
2023-05-22T05:40:43.948Z,6.18
2023-05-22T05:43:15.374Z,6.95
2023-05-22T05:45:44.032Z,6.40
2023-05-22T05:48:12.308Z,6.30
2023-05-22T05:50:43.348Z,6.05
2023-05-22T05:53:10.610Z,6.05
2023-05-22T05:55:38.940Z,6.40
2023-05-22T05:58:06.026Z,5.40
2023-05-22T06:00:45.138Z,5.43
2023-05-22T06:03:12.433Z,6.15
2023-05-22T06:06:03.671Z,5.70
2023-05-22T06:08:49.215Z,5.47
2023-05-22T06:11:16.591Z,5.82
2023-05-22T06:13:53.487Z,6.15
2023-05-22T06:16:20.593Z,6.32
2023-05-22T06:18:48.640Z,6.10
2023-05-22T06:21:16.191Z,5.70
2023-05-22T06:23:43.304Z,5.30
2023-05-22T06:26:11.372Z,6.05
2023-05-22T06:28:40.823Z,6.07
2023-05-22T06:31:10.026Z,5.85
2023-05-22T06:33:40.970Z,5.60
2023-05-22T06:36:09.083Z,5.22
2023-05-22T06:38:38.130Z,6.28
2023-05-22T06:41:08.206Z,6.50
2023-05-22T06:43:35.914Z,6.13
2023-05-22T06:46:12.932Z,5.60
2023-05-22T06:49:00.259Z,5.78
2023-05-22T06:51:35.519Z,5.75
2023-05-22T06:54:09.621Z,6.35
2023-05-22T06:56:37.614Z,5.78
2023-05-22T06:59:11.966Z,6.50
2023-05-22T07:01:48.301Z,5.72
2023-05-22T07:04:20.438Z,6.72
2023-05-22T07:06:57.278Z,5.68
2023-05-22T07:09:24.551Z,5.63
2023-05-22T07:11:51.762Z,5.20
2023-05-22T07:14:18.849Z,5.13
2023-05-22T07:16:46.473Z,5.75
2023-05-22T07:19:19.613Z,4.57
2023-05-22T07:21:46.889Z,4.15
2023-05-22T07:24:17.796Z,3.85
2023-05-22T07:26:46.673Z,3.97
2023-05-22T07:29:14.622Z,3.63
2023-05-22T07:31:42.654Z,3.67
2023-05-22T07:34:11.146Z,3.60
2023-05-22T07:36:38.782Z,3.00
2023-05-22T07:39:06.985Z,3.58
2023-05-22T07:41:39.093Z,3.47
2023-05-22T07:44:08.001Z,3.20
2023-05-22T07:46:38.473Z,3.38
2023-05-22T07:49:19.838Z,2.70
2023-05-22T07:51:48.113Z,2.60
2023-05-22T07:54:16.694Z,2.80
2023-05-22T07:56:46.164Z,2.78
2023-05-22T07:59:16.528Z,2.75
2023-05-22T08:01:43.661Z,3.10
2023-05-22T08:04:11.114Z,3.30
2023-05-22T08:06:39.745Z,3.40
2023-05-22T08:09:06.823Z,3.13
2023-05-22T08:11:34.345Z,3.05
2023-05-22T08:14:01.424Z,2.60
2023-05-22T08:16:28.576Z,2.60
2023-05-22T08:18:55.684Z,3.10
2023-05-22T08:21:22.820Z,3.03
2023-05-22T08:23:49.837Z,3.30
2023-05-22T08:26:16.919Z,3.10
2023-05-22T08:28:44.586Z,2.47
2023-05-22T08:31:12.444Z,2.50
2023-05-22T08:33:40.099Z,2.40
2023-05-22T08:36:07.424Z,2.47
2023-05-22T08:38:34.848Z,2.30
2023-05-22T08:41:02.416Z,2.30
2023-05-22T08:43:29.794Z,2.35
2023-05-22T08:46:03.543Z,2.75
2023-05-22T08:48:34.711Z,2.08
2023-05-22T08:51:04.850Z,2.00
2023-05-22T08:53:35.856Z,2.38
2023-05-22T08:56:06.934Z,2.30
2023-05-22T08:58:37.924Z,2.42
2023-05-22T09:01:06.596Z,2.35
2023-05-22T09:03:37.058Z,2.53
2023-05-22T09:06:04.751Z,2.05
2023-05-22T09:08:32.013Z,2.40
2023-05-22T09:10:59.070Z,1.92
2023-05-22T09:13:28.351Z,2.10
2023-05-22T09:16:11.927Z,2.20
2023-05-22T09:18:40.131Z,2.50
2023-05-22T09:21:21.421Z,2.20
2023-05-22T09:23:55.263Z,2.05
2023-05-22T09:26:22.640Z,2.00
2023-05-22T09:28:49.675Z,2.15
2023-05-22T09:31:17.049Z,2.10
2023-05-22T09:33:44.487Z,1.95
2023-05-22T09:36:11.909Z,2.15
2023-05-22T09:38:39.631Z,1.77
2023-05-22T09:41:06.757Z,1.95
2023-05-22T09:43:33.988Z,2.00
2023-05-22T09:46:02.477Z,2.35
2023-05-22T09:48:29.816Z,2.00
2023-05-22T09:51:00.178Z,2.10
2023-05-22T09:53:29.078Z,2.10
2023-05-22T09:56:00.430Z,2.38
2023-05-22T09:58:31.325Z,2.00
2023-05-22T10:00:59.493Z,1.90
2023-05-22T10:03:27.831Z,2.10
2023-05-22T10:05:57.022Z,1.70
2023-05-22T10:08:36.790Z,1.95
2023-05-22T10:11:06.417Z,2.30
2023-05-22T10:13:36.383Z,1.70
2023-05-22T10:16:05.090Z,1.83
2023-05-22T10:18:32.407Z,1.65
2023-05-22T10:21:00.326Z,2.20
2023-05-22T10:23:28.742Z,2.17
2023-05-22T10:25:56.482Z,2.10
2023-05-22T10:28:40.816Z,2.03
2023-05-22T10:31:19.144Z,2.08
2023-05-22T10:34:11.506Z,2.00
2023-05-22T10:37:00.404Z,1.92
2023-05-22T10:40:02.104Z,2.13
2023-05-22T10:42:32.481Z,2.03
2023-05-22T10:45:01.308Z,2.10
2023-05-22T10:47:28.435Z,2.20
2023-05-22T10:50:07.441Z,2.72
2023-05-22T10:52:35.689Z,2.28
2023-05-22T10:55:08.230Z,1.80
2023-05-22T10:57:38.502Z,2.28
2023-05-22T11:00:11.091Z,1.90
2023-05-22T11:02:43.518Z,2.33
2023-05-22T11:05:18.642Z,2.40
2023-05-22T11:07:45.777Z,1.80
2023-05-22T11:10:12.743Z,1.77
2023-05-22T11:12:41.667Z,1.88
2023-05-22T11:15:10.733Z,2.22
2023-05-22T11:17:42.728Z,2.00
2023-05-22T11:20:21.244Z,1.85
2023-05-22T11:25:19.258Z,2.00
2023-05-22T11:27:48.534Z,2.00
2023-05-22T11:30:17.505Z,1.95
2023-05-22T11:32:46.047Z,2.00
2023-05-22T11:35:18.530Z,1.85
2023-05-22T11:37:46.498Z,2.00
2023-05-22T11:40:19.006Z,1.83
2023-05-22T11:42:46.683Z,2.30
2023-05-22T11:45:14.385Z,2.10
2023-05-22T11:47:42.267Z,2.08
2023-05-22T11:50:10.367Z,1.80
2023-05-22T11:52:41.499Z,1.63
2023-05-22T11:55:10.082Z,1.83
2023-05-22T11:57:38.442Z,1.88
2023-05-22T12:00:08.736Z,1.90
2023-05-22T12:02:39.517Z,1.65
2023-05-22T12:05:10.330Z,1.92
2023-05-22T12:07:37.908Z,1.92
2023-05-22T12:10:07.540Z,2.00
2023-05-22T12:12:34.716Z,2.00
2023-05-22T12:15:04.914Z,2.10
2023-05-22T12:19:59.296Z,1.90
2023-05-22T12:22:29.896Z,2.28
2023-05-22T12:24:57.005Z,1.90
2023-05-22T12:27:24.217Z,2.20
2023-05-22T12:29:53.025Z,2.10
2023-05-22T12:32:22.260Z,1.80
2023-05-22T12:34:50.529Z,1.90
2023-05-22T12:37:28.389Z,1.90
2023-05-22T12:39:56.540Z,1.80
2023-05-22T12:42:25.053Z,2.00
2023-05-22T12:44:58.283Z,2.30
2023-05-22T12:47:25.963Z,2.10
2023-05-22T12:49:53.558Z,1.73
2023-05-22T12:52:20.621Z,1.90
2023-05-22T12:54:47.778Z,1.88
2023-05-22T12:57:17.020Z,2.17
2023-05-22T12:59:44.159Z,2.20
2023-05-22T13:02:11.597Z,1.90
2023-05-22T13:04:38.820Z,1.80
2023-05-22T13:07:06.095Z,2.08
2023-05-22T13:09:33.158Z,2.20
2023-05-22T13:12:00.489Z,1.85
2023-05-22T13:14:27.617Z,2.00
2023-05-22T13:16:54.680Z,2.05
2023-05-22T13:19:21.779Z,2.00
2023-05-22T13:21:48.898Z,2.05
2023-05-22T13:24:15.913Z,1.77
2023-05-22T13:26:42.943Z,1.95
2023-05-22T13:29:10.124Z,1.83
2023-05-22T13:31:38.114Z,1.83
2023-05-22T13:34:05.669Z,2.03
2023-05-22T13:36:34.565Z,1.90
2023-05-22T13:39:01.889Z,2.10
2023-05-22T13:41:29.134Z,1.90
2023-05-22T13:43:56.345Z,1.77
2023-05-22T13:46:23.508Z,1.75
2023-05-22T13:48:50.700Z,1.85
2023-05-22T13:51:17.900Z,2.40
2023-05-22T13:53:45.104Z,1.85
2023-05-22T13:56:12.306Z,1.63
2023-05-22T13:58:39.573Z,1.80
2023-05-22T14:01:06.719Z,1.80
2023-05-22T14:03:34.153Z,2.83
2023-05-22T14:06:01.861Z,2.03
2023-05-22T14:08:28.919Z,2.00
2023-05-22T14:10:56.052Z,1.85
2023-05-22T14:13:23.268Z,1.73
2023-05-22T14:15:50.460Z,2.00
2023-05-22T14:18:17.704Z,2.00
2023-05-22T14:20:46.001Z,2.00
2023-05-22T14:23:14.116Z,2.22
2023-05-22T14:25:43.288Z,2.53
2023-05-22T14:28:14.226Z,1.97
2023-05-22T14:30:41.531Z,2.10
2023-05-22T14:33:08.661Z,1.80
2023-05-22T14:35:35.799Z,1.88
2023-05-22T14:38:02.841Z,1.80
2023-05-22T14:40:29.929Z,1.75
2023-05-22T14:42:57.025Z,1.85
2023-05-22T14:45:24.183Z,2.03
2023-05-22T14:47:51.410Z,1.95
2023-05-22T14:50:20.208Z,2.00
2023-05-22T14:52:49.399Z,1.77
2023-05-22T14:55:17.588Z,1.80
2023-05-22T14:57:44.827Z,1.90
2023-05-22T15:00:12.771Z,1.88
2023-05-22T15:02:42.935Z,2.20
2023-05-22T15:05:10.508Z,1.95
2023-05-22T15:10:09.089Z,1.98
2023-05-22T15:12:36.394Z,1.60
2023-05-22T15:15:03.578Z,2.08
2023-05-22T15:17:30.625Z,1.75
2023-05-22T15:19:57.736Z,1.92
2023-05-22T15:22:24.851Z,1.90
2023-05-22T15:25:15.474Z,2.00
2023-05-22T15:27:43.953Z,1.98
2023-05-22T15:30:12.462Z,1.60
2023-05-22T15:32:39.947Z,1.98
2023-05-22T15:35:07.659Z,1.80
2023-05-22T15:37:36.694Z,2.20
2023-05-22T15:40:04.684Z,2.05
2023-05-22T15:42:32.049Z,2.25
2023-05-22T15:45:00.177Z,1.60
2023-05-22T15:47:27.611Z,1.90
2023-05-22T15:49:54.749Z,2.05
2023-05-22T15:52:24.595Z,1.75
2023-05-22T15:54:51.799Z,2.10
2023-05-22T15:57:18.886Z,1.95
2023-05-22T15:59:47.526Z,2.08
2023-05-22T16:02:14.939Z,2.13
2023-05-22T16:04:42.175Z,2.00
2023-05-22T16:07:09.308Z,1.80
2023-05-22T16:09:36.657Z,2.25
2023-05-22T16:12:04.284Z,1.80
2023-05-22T16:14:31.861Z,1.67
2023-05-22T16:16:59.273Z,2.00
2023-05-22T16:19:28.730Z,1.85
2023-05-22T16:21:56.065Z,1.80
2023-05-22T16:24:23.121Z,1.95
2023-05-22T16:26:50.478Z,1.80
2023-05-22T16:29:21.303Z,2.00
2023-05-22T16:31:48.611Z,2.00
2023-05-22T16:34:15.939Z,2.35
2023-05-22T16:36:43.120Z,1.70
2023-05-22T16:39:10.647Z,2.05
2023-05-22T16:41:38.072Z,2.28
2023-05-22T16:44:05.234Z,2.10
2023-05-22T16:46:32.391Z,2.00
2023-05-22T16:48:59.500Z,1.90
2023-05-22T16:51:26.630Z,2.00
2023-05-22T16:53:53.652Z,2.05
2023-05-22T16:56:21.258Z,1.60
2023-05-22T16:58:48.542Z,1.98
2023-05-22T17:01:15.990Z,2.17
2023-05-22T17:03:43.266Z,2.08
2023-05-22T17:06:10.449Z,2.13
2023-05-22T17:08:37.834Z,2.10
2023-05-22T17:11:04.985Z,1.90
2023-05-22T17:13:32.187Z,2.00
2023-05-22T17:15:59.347Z,2.00
2023-05-22T17:18:26.500Z,1.90
2023-05-22T17:20:56.648Z,2.08
2023-05-22T17:23:23.975Z,2.28
2023-05-22T17:25:51.446Z,1.60
2023-05-22T17:28:18.655Z,1.80
2023-05-22T17:30:46.349Z,1.90
2023-05-22T17:33:14.248Z,2.00
2023-05-22T17:35:41.971Z,2.03
2023-05-22T17:38:09.380Z,2.03
2023-05-22T17:40:44.670Z,2.25
2023-05-22T17:43:13.896Z,2.05
2023-05-22T17:45:42.011Z,2.00
2023-05-22T17:48:10.146Z,2.20
2023-05-22T17:50:38.105Z,2.08
2023-05-22T17:53:05.299Z,2.10
2023-05-22T17:55:32.301Z,2.10
2023-05-22T17:57:59.917Z,2.10
2023-05-22T18:00:27.004Z,2.20
2023-05-22T18:02:54.160Z,2.25
2023-05-22T18:05:21.338Z,2.50
2023-05-22T18:07:48.549Z,2.40
2023-05-22T18:10:15.719Z,2.47
2023-05-22T18:12:42.813Z,2.10
2023-05-22T18:15:12.364Z,2.50
2023-05-22T18:17:40.212Z,2.85
2023-05-22T18:20:08.704Z,2.30
2023-05-22T18:22:39.228Z,2.58
2023-05-22T18:25:07.415Z,2.40
2023-05-22T18:27:36.226Z,2.33
2023-05-22T18:30:04.721Z,2.42
2023-05-22T18:32:32.389Z,2.88
2023-05-22T18:35:00.263Z,2.60
2023-05-22T18:37:27.388Z,2.95
2023-05-22T18:39:54.541Z,2.83
2023-05-22T18:42:21.669Z,2.60
2023-05-22T18:44:49.729Z,2.60
2023-05-22T18:47:17.184Z,2.70
2023-05-22T18:49:44.420Z,2.92
2023-05-22T18:52:11.505Z,3.13
2023-05-22T18:54:38.588Z,2.80
2023-05-22T18:57:05.903Z,3.05
2023-05-22T18:59:33.058Z,3.30
2023-05-22T19:02:00.298Z,3.25
2023-05-22T19:04:27.564Z,2.90
2023-05-22T19:06:54.651Z,2.88
2023-05-22T19:09:22.364Z,2.95
2023-05-22T19:11:49.458Z,2.97
2023-05-22T19:14:16.643Z,3.42
2023-05-22T19:16:44.154Z,3.17
2023-05-22T19:19:11.824Z,3.90
2023-05-22T19:21:39.262Z,3.45
2023-05-22T19:24:07.015Z,3.22
2023-05-22T19:26:34.091Z,2.90
2023-05-22T19:29:01.252Z,2.88
2023-05-22T19:31:28.972Z,3.03
2023-05-22T19:33:56.301Z,2.85
2023-05-22T19:36:23.424Z,2.88
2023-05-22T19:38:51.876Z,2.75
2023-05-22T19:41:20.717Z,3.00
2023-05-22T19:43:47.757Z,3.20
2023-05-22T19:46:14.921Z,3.30
2023-05-22T19:48:41.952Z,2.60
2023-05-22T19:51:09.064Z,3.25
2023-05-22T19:53:36.723Z,2.90
2023-05-22T19:56:04.130Z,3.20
2023-05-22T19:58:31.204Z,3.10
2023-05-22T20:00:58.268Z,3.00
2023-05-22T20:03:26.504Z,3.20
2023-05-22T20:05:53.916Z,3.08
2023-05-22T20:08:25.699Z,3.30
2023-05-22T20:10:53.137Z,3.40
2023-05-22T20:13:20.252Z,3.10
2023-05-22T20:15:47.969Z,2.97
2023-05-22T20:18:15.269Z,3.42
2023-05-22T20:20:42.405Z,3.03
2023-05-22T20:23:09.551Z,3.22
2023-05-22T20:25:37.955Z,3.60
2023-05-22T20:28:05.221Z,3.08
2023-05-22T20:30:32.824Z,3.42
2023-05-22T20:32:59.950Z,3.17
2023-05-22T20:35:27.088Z,3.50
2023-05-22T20:37:54.257Z,3.38
2023-05-22T20:40:21.944Z,3.65
2023-05-22T20:42:49.364Z,3.20
2023-05-22T20:45:17.641Z,3.45
2023-05-22T20:47:44.987Z,3.80
2023-05-22T20:50:12.422Z,3.85
2023-05-22T20:52:39.633Z,3.70
2023-05-22T20:55:07.538Z,3.60
2023-05-22T20:57:34.804Z,4.22
2023-05-22T21:00:01.956Z,3.85
2023-05-22T21:02:28.878Z,4.05
2023-05-22T21:04:56.255Z,3.67
2023-05-22T21:07:23.436Z,4.18
2023-05-22T21:09:50.467Z,3.80
2023-05-22T21:12:17.556Z,4.03
2023-05-22T21:14:44.691Z,4.05
2023-05-22T21:17:11.832Z,4.25
2023-05-22T21:19:38.996Z,4.30
2023-05-22T21:22:06.085Z,4.25
2023-05-22T21:24:33.287Z,4.07
2023-05-22T21:27:00.802Z,4.25
2023-05-22T21:29:27.992Z,3.88
2023-05-22T21:31:54.976Z,4.03
2023-05-22T21:34:21.983Z,4.93
2023-05-22T21:36:49.940Z,3.90
2023-05-22T21:39:17.204Z,4.18
2023-05-22T21:41:44.379Z,4.20
2023-05-22T21:44:11.522Z,4.25
2023-05-22T21:46:38.780Z,3.85
2023-05-22T21:49:06.412Z,3.92
2023-05-22T21:51:33.586Z,4.30
2023-05-22T21:54:00.554Z,4.47
2023-05-22T21:56:27.806Z,4.43
2023-05-22T21:58:55.033Z,4.25
2023-05-22T22:01:22.285Z,4.22
2023-05-22T22:03:49.486Z,4.80
2023-05-22T22:06:16.755Z,4.43
2023-05-22T22:08:43.756Z,4.28
2023-05-22T22:11:10.838Z,4.85
2023-05-22T22:13:37.881Z,4.32
2023-05-22T22:16:05.096Z,4.50
2023-05-22T22:18:37.122Z,4.38
2023-05-22T22:21:04.753Z,4.55
2023-05-22T22:23:31.734Z,4.63
2023-05-22T22:25:58.818Z,4.50
2023-05-22T22:28:25.801Z,4.43
2023-05-22T22:30:55.269Z,4.90
2023-05-22T22:33:22.984Z,4.60
2023-05-22T22:35:50.318Z,5.00
2023-05-22T22:38:17.435Z,4.72
2023-05-22T22:40:44.541Z,4.65
2023-05-22T22:43:11.612Z,5.40
2023-05-22T22:45:40.213Z,4.80
2023-05-22T22:48:07.502Z,4.95
2023-05-22T22:50:34.712Z,4.50
2023-05-22T22:53:01.813Z,5.10
2023-05-22T22:55:29.011Z,4.80
2023-05-22T22:57:56.368Z,4.40
2023-05-22T23:00:23.803Z,4.70
2023-05-22T23:02:51.054Z,4.30
2023-05-22T23:05:20.520Z,4.78
2023-05-22T23:07:48.314Z,4.20
2023-05-22T23:10:15.883Z,3.92
2023-05-22T23:12:43.142Z,4.72
2023-05-22T23:15:11.439Z,4.65
2023-05-22T23:17:38.683Z,4.28
2023-05-22T23:20:06.465Z,4.38
2023-05-22T23:22:33.505Z,4.30
2023-05-22T23:25:00.630Z,4.13
2023-05-22T23:27:27.652Z,4.28
2023-05-22T23:29:54.622Z,4.38
2023-05-22T23:32:22.459Z,4.03
2023-05-22T23:34:49.663Z,4.35
2023-05-22T23:37:16.749Z,3.85
2023-05-22T23:39:43.697Z,3.58
2023-05-22T23:42:11.221Z,3.83
2023-05-22T23:44:38.387Z,3.92
2023-05-22T23:47:06.726Z,3.83
2023-05-22T23:49:34.071Z,4.28
2023-05-22T23:52:01.075Z,3.60
2023-05-22T23:54:28.055Z,4.07
2023-05-22T23:56:55.046Z,4.35
2023-05-22T23:59:22.325Z,3.97
